createdAt,value
2019-04-14T00:01:47.845Z,23.53
2019-04-14T00:06:52.511Z,23.23
2019-04-14T00:11:56.943Z,24.53
2019-04-14T00:17:00.453Z,24.63
2019-04-14T00:22:05.321Z,24.37
2019-04-14T00:27:09.055Z,23.77
2019-04-14T00:32:12.616Z,24.37
2019-04-14T00:37:18.448Z,24.97
2019-04-14T00:42:29.859Z,25.67
2019-04-14T00:47:36.553Z,23.83
2019-04-14T00:52:40.126Z,23.67
2019-04-14T00:57:44.136Z,23.23
2019-04-14T01:02:47.726Z,24.37
2019-04-14T01:07:52.316Z,23.10
2019-04-14T01:12:55.999Z,22.07
2019-04-14T01:17:59.337Z,24.03
2019-04-14T01:23:02.630Z,24.53
2019-04-14T01:28:06.795Z,23.67
2019-04-14T01:33:10.142Z,25.13
2019-04-14T01:38:15.339Z,25.23
2019-04-14T01:43:18.912Z,27.20
2019-04-14T01:48:23.609Z,26.13
2019-04-14T01:53:40.322Z,26.50
2019-04-14T01:58:45.495Z,27.10
2019-04-14T02:03:50.067Z,26.73
2019-04-14T02:08:54.591Z,27.93
2019-04-14T02:13:59.133Z,26.00
2019-04-14T02:19:02.593Z,26.37
2019-04-14T02:24:07.158Z,26.40
2019-04-14T02:29:12.073Z,27.00
2019-04-14T02:34:49.421Z,27.10
2019-04-14T02:39:54.058Z,25.27
2019-04-14T02:49:56.602Z,25.80
2019-04-14T02:55:04.472Z,25.33
2019-04-14T03:00:07.780Z,24.03
2019-04-14T03:05:10.188Z,25.67
2019-04-14T03:10:17.908Z,24.60
2019-04-14T03:15:27.914Z,24.00
2019-04-14T03:20:39.508Z,26.57
2019-04-14T03:25:49.570Z,26.73
2019-04-14T03:36:50.345Z,27.77
2019-04-14T03:41:17.149Z,25.30
2019-04-14T03:46:36.285Z,23.83
2019-04-14T03:56:09.131Z,23.10
2019-04-14T04:01:10.563Z,22.33
2019-04-14T04:06:14.123Z,21.83
2019-04-14T04:11:17.411Z,22.47
2019-04-14T04:16:22.406Z,22.40
2019-04-14T04:21:27.266Z,22.93
2019-04-14T04:26:38.614Z,21.87
2019-04-14T04:31:55.205Z,22.13
2019-04-14T04:37:10.310Z,23.10
2019-04-14T04:42:13.733Z,21.83
2019-04-14T04:47:17.017Z,23.97
2019-04-14T04:52:21.246Z,23.23
2019-04-14T04:57:24.815Z,23.07
2019-04-14T05:02:28.782Z,22.60
2019-04-14T05:07:33.701Z,23.10
2019-04-14T05:12:39.182Z,20.97
2019-04-14T05:17:47.418Z,21.73
2019-04-14T05:22:50.950Z,21.97
2019-04-14T05:27:54.493Z,20.60
2019-04-14T05:32:58.739Z,21.33
2019-04-14T05:38:02.148Z,23.63
2019-04-14T05:43:06.652Z,21.23
2019-04-14T05:48:10.068Z,21.93
2019-04-14T05:53:13.431Z,23.03
2019-04-14T05:58:16.744Z,20.87
2019-04-14T06:03:21.058Z,20.83
2019-04-14T06:08:24.619Z,20.17
2019-04-14T06:13:27.901Z,21.07
2019-04-14T06:18:31.467Z,21.40
2019-04-14T06:23:35.004Z,20.90
2019-04-14T06:28:41.325Z,19.20
2019-04-14T06:33:52.755Z,19.87
2019-04-14T06:39:15.861Z,18.60
2019-04-14T06:44:19.185Z,19.17
2019-04-14T06:49:22.607Z,18.23
2019-04-14T06:54:25.883Z,17.57
2019-04-14T06:59:29.410Z,18.40
2019-04-14T07:04:32.791Z,18.30
2019-04-14T07:09:36.090Z,16.73
2019-04-14T07:14:39.649Z,17.83
2019-04-14T07:19:42.938Z,15.50
2019-04-14T07:24:46.491Z,16.93
2019-04-14T07:29:51.420Z,16.37
2019-04-14T07:35:05.470Z,16.60
2019-04-14T07:40:10.575Z,15.67
2019-04-14T07:45:18.432Z,16.00
2019-04-14T07:50:38.342Z,16.13
2019-04-14T07:55:43.281Z,15.90
2019-04-14T08:00:48.219Z,15.27
2019-04-14T08:05:51.540Z,15.27
2019-04-14T08:10:55.102Z,14.33
2019-04-14T08:15:58.636Z,15.07
2019-04-14T08:21:03.113Z,15.13
2019-04-14T08:26:06.645Z,14.13
2019-04-14T08:31:09.944Z,13.77
2019-04-14T08:36:14.226Z,14.10
2019-04-14T08:41:17.517Z,13.07
2019-04-14T08:46:40.315Z,12.40
2019-04-14T08:52:00.689Z,11.77
2019-04-14T08:57:08.627Z,11.53
2019-04-14T09:02:19.375Z,12.17
2019-04-14T09:07:33.128Z,13.43
2019-04-14T09:12:41.216Z,12.70
2019-04-14T09:17:44.516Z,12.23
2019-04-14T09:22:47.806Z,11.60
2019-04-14T09:27:51.373Z,11.67
2019-04-14T09:32:54.929Z,11.30
2019-04-14T09:37:58.231Z,10.93
2019-04-14T09:43:01.781Z,11.30
2019-04-14T09:48:05.078Z,10.53
2019-04-14T09:53:08.674Z,10.87
2019-04-14T09:58:12.239Z,10.93
2019-04-14T10:03:15.549Z,10.83
2019-04-14T10:08:18.843Z,10.23
2019-04-14T10:13:22.155Z,10.50
2019-04-14T10:18:25.473Z,10.00
2019-04-14T10:23:28.768Z,9.53
2019-04-14T10:28:32.066Z,9.90
2019-04-14T10:33:35.614Z,10.00
2019-04-14T10:38:39.157Z,10.63
2019-04-14T10:43:42.540Z,10.33
2019-04-14T10:48:46.088Z,11.00
2019-04-14T10:53:49.473Z,9.93
2019-04-14T10:58:52.793Z,10.60
2019-04-14T11:03:56.333Z,10.20
2019-04-14T11:09:04.809Z,9.97
2019-04-14T11:14:05.373Z,10.03
2019-04-14T11:19:08.904Z,10.43
2019-04-14T11:24:12.462Z,9.07
2019-04-14T11:29:15.724Z,8.70
2019-04-14T11:34:20.907Z,9.13
2019-04-14T11:39:24.861Z,8.70
2019-04-14T11:44:28.404Z,9.63
2019-04-14T11:49:31.712Z,10.27
2019-04-14T11:54:35.282Z,10.83
2019-04-14T11:59:46.426Z,10.37
2019-04-14T12:04:51.419Z,9.77
2019-04-14T12:09:56.291Z,13.53
2019-04-14T12:14:59.578Z,11.70
2019-04-14T12:20:03.242Z,12.43
2019-04-14T12:25:09.525Z,11.53
2019-04-14T12:30:13.649Z,11.97
2019-04-14T12:35:17.168Z,10.57
2019-04-14T12:40:21.556Z,11.67
2019-04-14T12:45:29.721Z,12.10
2019-04-14T12:50:38.052Z,11.30
2019-04-14T12:55:41.410Z,11.27
2019-04-14T13:00:52.499Z,11.53
2019-04-14T13:05:55.801Z,10.90
2019-04-14T13:10:59.098Z,10.47
2019-04-14T13:16:02.388Z,11.37
2019-04-14T13:21:05.759Z,11.37
2019-04-14T13:26:09.287Z,10.97
2019-04-14T13:31:12.604Z,11.80
2019-04-14T13:36:16.165Z,12.50
2019-04-14T13:41:19.702Z,11.30
2019-04-14T13:46:22.990Z,11.20
2019-04-14T13:51:26.553Z,11.53
2019-04-14T13:56:30.145Z,11.80
2019-04-14T14:01:33.739Z,12.63
2019-04-14T14:06:37.325Z,11.30
2019-04-14T14:11:59.690Z,11.60
2019-04-14T14:17:23.000Z,11.30
2019-04-14T14:22:40.108Z,10.63
2019-04-14T14:27:43.414Z,11.10
2019-04-14T14:32:47.021Z,11.37
2019-04-14T14:37:50.529Z,10.87
2019-04-14T14:42:53.840Z,11.30
2019-04-14T14:48:04.679Z,11.60
2019-04-14T14:53:12.303Z,10.70
2019-04-14T14:58:12.992Z,10.70
2019-04-14T15:03:16.310Z,24.10
2019-04-14T15:08:19.608Z,13.17
2019-04-14T15:13:23.212Z,14.73
2019-04-14T15:18:26.775Z,10.80
2019-04-14T15:23:30.101Z,11.30
2019-04-14T15:28:33.647Z,10.33
2019-04-14T15:33:36.951Z,10.10
2019-04-14T15:38:40.526Z,13.57
2019-04-14T15:43:44.091Z,10.80
2019-04-14T15:48:47.362Z,9.83
2019-04-14T15:53:51.011Z,9.50
2019-04-14T15:58:56.014Z,10.00
2019-04-14T16:04:10.331Z,10.83
2019-04-14T16:09:19.354Z,9.30
2019-04-14T16:14:40.930Z,9.30
2019-04-14T16:19:46.566Z,11.47
2019-04-14T16:24:50.108Z,11.37
2019-04-14T16:30:11.164Z,9.57
2019-04-14T16:35:16.899Z,9.10
2019-04-14T16:40:30.789Z,10.03
2019-04-14T16:45:34.085Z,9.67
2019-04-14T16:50:37.361Z,7.73
2019-04-14T16:55:57.075Z,8.60
2019-04-14T17:01:05.148Z,8.60
2019-04-14T17:06:12.992Z,8.97
2019-04-14T17:11:16.550Z,8.80
2019-04-14T17:16:37.669Z,7.63
2019-04-14T17:21:51.179Z,8.10
2019-04-14T17:26:56.126Z,7.83
2019-04-14T17:32:17.440Z,8.10
2019-04-14T17:37:38.782Z,7.70
2019-04-14T17:42:46.850Z,8.77
2019-04-14T17:47:52.116Z,8.87
2019-04-14T17:53:03.073Z,7.83
2019-04-14T17:58:11.282Z,8.33
2019-04-14T18:03:16.368Z,8.40
2019-04-14T18:08:21.830Z,8.20
2019-04-14T18:13:46.275Z,7.53
2019-04-14T18:19:09.737Z,8.03
2019-04-14T18:24:13.275Z,7.57
2019-04-14T18:29:27.059Z,7.40
2019-04-14T18:34:34.431Z,7.37
2019-04-14T18:39:44.863Z,7.90
2019-04-14T18:45:06.278Z,7.47
2019-04-14T18:50:12.532Z,7.53
2019-04-14T18:55:17.737Z,8.30
2019-04-14T19:00:34.821Z,8.00
2019-04-14T19:05:38.119Z,9.80
2019-04-14T19:10:43.393Z,7.23
2019-04-14T19:15:48.580Z,10.73
2019-04-14T19:20:53.770Z,7.03
2019-04-14T19:25:57.297Z,6.20
2019-04-14T19:31:00.831Z,6.27
2019-04-14T19:36:04.119Z,6.27
2019-04-14T19:41:07.414Z,6.33
2019-04-14T19:46:10.747Z,6.33
2019-04-14T19:51:14.134Z,6.10
2019-04-14T19:56:17.483Z,6.03
2019-04-14T20:01:20.783Z,5.63
2019-04-14T20:06:24.339Z,6.33
2019-04-14T20:11:27.797Z,6.60
2019-04-14T20:16:48.358Z,7.20
2019-04-14T20:21:59.124Z,6.50
2019-04-14T20:27:20.933Z,6.63
2019-04-14T20:32:28.542Z,6.80
2019-04-14T20:37:31.841Z,6.80
2019-04-14T20:42:38.251Z,6.87
2019-04-14T20:47:42.672Z,6.73
2019-04-14T20:52:46.266Z,6.37
2019-04-14T20:57:49.552Z,5.97
2019-04-14T21:03:11.982Z,5.87
2019-04-14T21:08:31.905Z,5.37
2019-04-14T21:13:36.853Z,5.63
2019-04-14T21:18:41.815Z,5.30
2019-04-14T21:23:47.018Z,4.93
2019-04-14T21:29:08.403Z,5.40
2019-04-14T21:34:13.331Z,5.03
2019-04-14T21:39:32.988Z,5.37
2019-04-14T21:44:36.532Z,4.97
2019-04-14T21:49:40.077Z,5.60
2019-04-14T21:54:45.090Z,5.80
2019-04-14T22:00:06.475Z,5.20
2019-04-14T22:05:20.774Z,5.23
2019-04-14T22:10:25.703Z,5.80
2019-04-14T22:15:28.975Z,5.70
2019-04-14T22:20:32.265Z,5.27
2019-04-14T22:25:35.611Z,6.00
2019-04-14T22:30:39.208Z,6.17
2019-04-14T22:35:42.768Z,6.23
2019-04-14T22:40:46.322Z,6.23
2019-04-14T22:45:49.918Z,5.80
2019-04-14T22:50:54.130Z,6.27
2019-04-14T22:55:57.419Z,6.40
2019-04-14T23:01:02.880Z,6.57
2019-04-14T23:06:10.665Z,7.03
2019-04-14T23:17:20.952Z,7.90
2019-04-14T23:22:42.006Z,7.83
2019-04-14T23:27:45.287Z,7.97
2019-04-14T23:32:48.583Z,7.50
2019-04-14T23:37:52.087Z,8.47
2019-04-14T23:42:55.623Z,8.27
2019-04-14T23:47:59.164Z,8.07
2019-04-14T23:53:02.686Z,7.83
2019-04-14T23:58:06.212Z,8.53
